Terminal Aerodrome Forecast
Issued by NWS

Home | Current Version | Previous Version | Text Only | Print | Product List | Glossary On
Versions: 1 2 3 4 5 6 7 8 9 10 11 12 13 14 15 16 17 18
000
FTUS41 KILN 252300
TAFLUK
TAF
KLUK 252328Z 2600/2624 06012KT P6SM VCSH OVC012
      TEMPO 2600/2604 4SM -SHRA BR OVC008
     FM260800 03012KT P6SM SCT012 BKN025
     FM261300 01012KT P6SM BKN040=

USA.gov is the U.S. government's official web portal to all federal, state and local government web resources and services.